Terminal Aerodrome Forecast
Issued by NWS Glasgow, MT

Home | Current Version | Previous Version | Text Only | Print | Product List | Glossary On
Versions: 1 2 3 4 5 6 7 8 9 10 11 12
000
FTUS45 KGGW 051100
TAFGGW
TAF
KGGW 051123Z 0512/0612 13016KT P6SM SCT200
     FM060000 14016KT P6SM BKN080
     FM060800 11009KT P6SM -SHRA OVC050=

USA.gov is the U.S. government's official web portal to all federal, state and local government web resources and services.